Time;durP1;ratioP1;P1;durP2;ratioP2;P2;SDS_P1;SDS_P2;PMS_P1;PMS_P2;Temp;Humidity;BMP_temperature;BMP_pressure;BME280_temperature;BME280_humidity;BME280_pressure;Samples;Min_cycle;Max_cycle;Signal;HPM_P1;HPM_P2
2023/10/03 00:02:18;;;;;;;538.00;486.00;;;;;;;15.66;100.00;100714.89;223800;1263;140754;-81
2023/10/03 00:08:18;;;;;;;547.40;494.90;;;;;;;15.62;100.00;100701.90;224245;1263;139975;-81
2023/10/03 00:14:09;;;;;;;;;;;;;;;;;;;;;
2023/10/03 00:20:08;;;;;;;;;;;;;;;;;;;;;
2023/10/03 00:26:15;;;;;;;590.10;525.50;;;;;;;15.49;100.00;100685.07;224085;1264;139914;-81
2023/10/03 00:32:11;;;;;;;490.10;444.50;;;;;;;15.42;100.00;100685.20;223534;1263;140550;-80
2023/10/03 00:38:09;;;;;;;;;;;;;;;;;;;;;
2023/10/03 00:44:10;;;;;;;481.00;436.00;;;;;;;15.27;100.00;100673.58;223639;1263;141191;-80
2023/10/03 00:50:00;;;;;;;;;;;;;;;;;;;;;
2023/10/03 00:56:02;;;;;;;;;;;;;;;;;;;;;
2023/10/03 01:02:06;;;;;;;427.70;388.90;;;;;;;15.03;100.00;100663.45;223627;1264;140972;-81
2023/10/03 01:07:33;;;;;;;;;;;;;;;;;;;;;
2023/10/03 01:13:35;;;;;;;396.00;359.90;;;;;;;14.90;100.00;100659.21;223580;1265;140874;-80
2023/10/03 01:25:43;;;;;;;388.00;355.00;;;;;;;14.79;100.00;100647.20;224207;1263;245627;-81
2023/10/03 01:31:44;;;;;;;422.30;383.10;;;;;;;14.76;100.00;100635.66;223594;1264;141062;-81
2023/10/03 01:37:45;;;;;;;440.20;399.20;;;;;;;14.73;100.00;100632.42;224143;1263;139908;-81
2023/10/03 01:43:47;;;;;;;410.60;374.70;;;;;;;14.71;100.00;100625.94;223683;1263;140748;-81
2023/10/03 01:49:50;;;;;;;452.30;411.20;;;;;;;14.67;100.00;100622.15;224223;1263;140154;-80
2023/10/03 01:55:49;;;;;;;428.80;389.50;;;;;;;14.63;100.00;100620.09;224179;1264;139939;-81
2023/10/03 02:01:31;;;;;;;;;;;;;;;;;;;;;
2023/10/03 02:07:33;;;;;;;397.40;359.90;;;;;;;14.55;100.00;100601.75;224428;1263;95971;-81
2023/10/03 02:13:27;;;;;;;396.80;361.30;;;;;;;14.54;100.00;100588.14;223786;1263;142525;-81
2023/10/03 02:19:29;;;;;;;377.30;344.70;;;;;;;14.51;100.00;100576.44;224312;1264;95917;-81
2023/10/03 02:25:30;;;;;;;423.30;385.00;;;;;;;14.48;100.00;100565.93;224305;1263;95839;-81
2023/10/03 02:31:33;;;;;;;405.10;368.50;;;;;;;14.45;100.00;100558.34;223763;1264;140781;-81
2023/10/03 02:37:17;;;;;;;351.40;319.80;;;;;;;14.43;100.00;100554.15;224418;1263;95832;-81
2023/10/03 02:43:16;;;;;;;;;;;;;;;;;;;;;
2023/10/03 02:49:32;;;;;;;361.20;330.30;;;;;;;14.37;100.00;100541.43;224431;1263;96053;-80
2023/10/03 02:55:09;;;;;;;367.20;334.60;;;;;;;14.33;100.00;100539.14;223867;1263;224249;-81
2023/10/03 03:01:10;;;;;;;326.50;298.20;;;;;;;14.30;100.00;100537.71;223782;1263;140744;-81
2023/10/03 03:07:03;;;;;;;;;;;;;;;;;;;;;
2023/10/03 03:19:21;;;;;;;337.00;308.20;;;;;;;14.17;100.00;100499.52;224244;1263;139325;-81
2023/10/03 03:25:02;;;;;;;336.50;307.40;;;;;;;14.13;100.00;100506.34;223655;1263;140675;-81
2023/10/03 03:31:02;;;;;;;320.70;292.80;;;;;;;14.10;100.00;100501.20;223773;1263;140626;-81
2023/10/03 03:37:37;;;;;;;296.20;271.50;;;;;;;14.05;100.00;100489.66;224191;1263;139216;-81
2023/10/03 03:43:06;;;;;;;292.90;268.70;;;;;;;14.01;100.00;100483.43;223635;1263;140779;-80
2023/10/03 03:49:08;;;;;;;275.50;253.30;;;;;;;13.97;100.00;100472.44;224170;1264;140106;-81
2023/10/03 03:55:03;;;;;;;;;;;;;;;;;;;;;
2023/10/03 04:01:12;;;;;;;241.70;222.20;;;;;;;13.88;100.00;100446.30;223542;1263;140825;-79
2023/10/03 04:13:10;;;;;;;247.80;226.60;;;;;;;13.80;100.00;100433.52;223693;1263;140774;-82
2023/10/03 04:19:05;;;;;;;;;;;;;;;;;;;;;
2023/10/03 04:25:13;;;;;;;253.20;232.50;;;;;;;13.75;100.00;100420.88;223669;1263;140589;-81
2023/10/03 04:31:12;;;;;;;256.40;234.70;;;;;;;13.73;100.00;100414.40;223713;1263;140788;-81
2023/10/03 04:37:13;;;;;;;236.30;216.50;;;;;;;13.71;100.00;100407.45;224270;1264;139106;-81
2023/10/03 04:43:14;;;;;;;290.30;265.90;;;;;;;13.69;100.00;100397.11;223663;1263;141049;-81
2023/10/03 04:49:15;;;;;;;241.00;220.70;;;;;;;13.69;100.00;100389.20;224122;1264;139113;-81
2023/10/03 04:55:16;;;;;;;280.90;257.40;;;;;;;13.69;100.00;100383.98;223866;1265;140970;-81
2023/10/03 05:01:03;;;;;;;;;;;;;;;;;;;;;
2023/10/03 05:07:06;;;;;;;266.40;243.80;;;;;;;13.68;100.00;100370.39;224120;1264;139549;-81
2023/10/03 05:12:58;;;;;;;;;;;;;;;;;;;;;
2023/10/03 05:19:04;;;;;;;279.10;255.20;;;;;;;13.75;100.00;100353.86;224187;1265;139403;-82
2023/10/03 05:25:03;;;;;;;222.10;203.50;;;;;;;13.80;100.00;100338.76;223754;1264;140600;-82
2023/10/03 05:31:05;;;;;;;260.50;238.90;;;;;;;13.86;100.00;100326.47;223753;1263;140920;-82
2023/10/03 05:37:05;;;;;;;266.50;243.00;;;;;;;13.93;100.00;100325.27;224304;1263;139297;-82
2023/10/03 05:43:04;;;;;;;;;;;;;;;;;;;;;
2023/10/03 05:49:06;;;;;;;253.20;231.40;;;;;;;14.08;100.00;100317.21;224307;1263;139899;-82
2023/10/03 05:54:57;;;;;;;162.70;148.50;;;;;;;14.17;100.00;100312.09;223765;1263;141334;-82
2023/10/03 06:00:59;;;;;;;269.70;246.60;;;;;;;14.26;100.00;100306.54;223602;1263;140710;-82
2023/10/03 06:06:54;;;;;;;289.10;264.90;;;;;;;14.35;100.00;100302.23;224316;1263;139253;-82
2023/10/03 06:12:54;;;;;;;242.60;220.10;;;;;;;14.45;100.00;100292.43;223773;1265;140702;-84
2023/10/03 06:18:56;;;;;;;340.90;309.30;;;;;;;14.59;100.00;100294.93;224269;1264;139769;-85
2023/10/03 06:24:57;;;;;;;293.80;268.20;;;;;;;14.71;100.00;100295.79;223713;1263;140487;-84
2023/10/03 06:36:59;;;;;;;357.10;325.00;;;;;;;14.98;100.00;100292.79;224241;1263;139975;-83
2023/10/03 06:43:00;;;;;;;276.90;254.20;;;;;;;15.11;100.00;100283.02;223706;1263;141034;-83
2023/10/03 06:49:00;;;;;;;333.10;304.50;;;;;;;15.24;100.00;100281.94;224221;1263;140017;-82
2023/10/03 07:01:03;;;;;;;261.00;238.40;;;;;;;15.51;100.00;100287.37;223541;1265;141092;-83
2023/10/03 07:13:05;;;;;;;369.10;336.60;;;;;;;15.82;100.00;100280.66;223536;1263;141235;-83
2023/10/03 07:25:08;;;;;;;317.50;290.30;;;;;;;16.22;100.00;100270.13;223666;1263;140909;-85
2023/10/03 07:37:10;;;;;;;338.10;308.00;;;;;;;16.58;100.00;100244.84;224163;1263;139312;-84
2023/10/03 07:43:12;;;;;;;426.80;388.10;;;;;;;16.83;100.00;100227.19;223689;1263;141125;-83
2023/10/03 07:55:16;;;;;;;406.10;370.40;;;;;;;17.43;100.00;100202.64;223859;1263;141706;-83
2023/10/03 08:01:13;;;;;;;398.70;363.10;;;;;;;17.76;100.00;100192.39;223575;1263;141605;-83
2023/10/03 08:07:21;;;;;;;244.70;225.10;;;;;;;18.10;99.08;100192.50;224307;1266;139489;-85
2023/10/03 08:13:38;;;;;;;314.50;288.50;;;;;;;18.44;97.41;100184.30;223702;1263;139992;-83
2023/10/03 08:25:21;;;;;;;567.40;493.50;;;;;;;19.13;94.61;100179.44;224180;1263;223898;-85
2023/10/03 08:31:20;;;;;;;;;;;;;;;;;;;;;
2023/10/03 08:37:22;;;;;;;503.70;457.60;;;;;;;20.03;93.24;100154.95;224200;1263;138137;-84
2023/10/03 08:43:29;;;;;;;343.20;315.90;;;;;;;20.52;90.63;100151.42;223521;1263;140697;-84
2023/10/03 08:49:23;;;;;;;;;;;;;;;;;;;;;
2023/10/03 08:55:26;;;;;;;205.70;188.30;;;;;;;21.44;87.37;100147.09;224053;1263;139166;-82
2023/10/03 09:01:28;;;;;;;58.90;54.20;;;;;;;22.02;82.22;100149.02;223492;1265;140854;-85
2023/10/03 09:07:50;;;;;;;153.40;113.60;;;;;;;22.58;81.59;100128.16;224173;1263;140220;-84
2023/10/03 09:13:33;;;;;;;45.40;10.30;;;;;;;23.29;76.71;100120.40;223628;1263;141513;-84
2023/10/03 09:19:23;;;;;;;36.90;10.80;;;;;;;23.93;74.96;100106.15;224282;1263;105699;-85
2023/10/03 09:25:28;;;;;;;17.10;8.40;;;;;;;24.37;70.55;100101.20;224124;1263;242884;-85
2023/10/03 09:31:25;;;;;;;19.70;7.60;;;;;;;24.92;70.79;100089.42;223698;1263;139767;-85
2023/10/03 09:37:28;;;;;;;28.70;8.40;;;;;;;25.57;67.79;100080.91;224251;1263;138671;-86
2023/10/03 09:43:53;;;;;;;20.90;7.20;;;;;;;26.02;64.09;100076.48;223696;1264;139318;-85
2023/10/03 09:49:16;;;;;;;85.40;11.30;;;;;;;26.28;58.59;100077.25;224143;1263;138703;-85
2023/10/03 10:07:29;;;;;;;23.20;8.00;;;;;;;26.40;56.12;100057.88;224251;1263;138939;-86
2023/10/03 10:13:23;;;;;;;27.10;7.70;;;;;;;26.33;57.34;100032.27;223732;1263;139879;-84
2023/10/03 10:19:26;;;;;;;22.30;8.20;;;;;;;26.25;56.96;100024.59;224142;1263;138905;-84
2023/10/03 10:25:27;;;;;;;23.50;8.30;;;;;;;26.19;56.50;100015.95;224202;1263;244606;-86
2023/10/03 10:31:34;;;;;;;22.40;8.80;;;;;;;26.14;55.70;100017.93;223606;1263;140498;-86
2023/10/03 10:37:45;;;;;;;22.80;8.70;;;;;;;26.32;55.62;99993.73;224119;1263;138042;-84
2023/10/03 10:44:05;;;;;;;27.50;8.60;;;;;;;26.44;55.55;99979.02;223853;1266;139450;-83
2023/10/03 10:50:12;;;;;;;22.10;8.00;;;;;;;26.62;54.10;99961.32;224045;1263;96083;-84
2023/10/03 10:56:13;;;;;;;19.80;7.80;;;;;;;26.74;53.83;99944.51;224294;1263;96293;-84
2023/10/03 11:02:17;;;;;;;22.10;8.20;;;;;;;26.80;54.62;99934.50;223710;1263;138877;-84
2023/10/03 11:08:22;;;;;;;20.90;8.70;;;;;;;26.90;53.85;99929.62;224343;1263;95738;-82
2023/10/03 11:14:23;;;;;;;;;;;;;;;;;;;;;
2023/10/03 11:20:24;;;;;;;21.50;8.20;;;;;;;26.89;53.27;99919.65;223816;1263;139171;-82
2023/10/03 11:32:35;;;;;;;;;;;;;;;;;;;;;
2023/10/03 11:38:38;;;;;;;36.10;9.00;;;;;;;26.62;54.24;99907.54;224268;1263;95944;-84
2023/10/03 11:44:44;;;;;;;19.20;7.90;;;;;;;26.62;54.39;99907.18;223633;1263;139468;-85
2023/10/03 11:50:46;;;;;;;20.30;7.80;;;;;;;26.66;54.02;99910.76;223676;1265;139463;-84
2023/10/03 11:56:45;;;;;;;;;;;;;;;;;;;;;
2023/10/03 12:02:49;;;;;;;42.10;9.90;;;;;;;26.71;54.88;99887.61;223825;1267;138809;-84
2023/10/03 12:08:42;;;;;;;;;;;;;;;;;;;;;
2023/10/03 12:14:36;;;;;;;;;;;;;;;;;;;;;
2023/10/03 12:20:25;;;;;;;27.80;8.70;;;;;;;27.10;53.97;99858.65;223664;1267;139634;-82
2023/10/03 12:26:26;;;;;;;20.00;10.50;;;;;;;27.18;52.80;99859.46;224174;1263;138488;-85
2023/10/03 12:32:28;;;;;;;24.80;9.70;;;;;;;27.22;52.03;99857.73;223659;1267;139173;-86
2023/10/03 12:38:28;;;;;;;41.70;11.50;;;;;;;27.27;51.97;99852.37;224194;1267;138350;-86
2023/10/03 12:44:29;;;;;;;;;;;;;;;;;;;;;
2023/10/03 12:50:22;;;;;;;;;;;;;;;;;;;;;
2023/10/03 12:56:27;;;;;;;23.20;8.40;;;;;;;26.99;50.42;99836.95;224141;1264;137829;-86
2023/10/03 13:02:26;;;;;;;19.90;8.90;;;;;;;26.86;50.89;99834.13;223656;1267;138937;-86
2023/10/03 13:08:27;;;;;;;23.20;8.60;;;;;;;26.78;51.40;99815.95;224182;1268;138255;-86
2023/10/03 13:14:28;;;;;;;24.50;9.70;;;;;;;26.74;51.98;99797.14;223603;1263;139690;-85
2023/10/03 13:20:19;;;;;;;20.30;9.40;;;;;;;26.72;52.29;99797.36;223664;1263;139514;-84
2023/10/03 13:26:20;;;;;;;29.90;10.70;;;;;;;26.75;51.89;99789.23;224161;1263;138332;-85
2023/10/03 13:32:16;;;;;;;19.20;8.60;;;;;;;26.81;50.99;99787.42;223574;1266;140168;-84
2023/10/03 13:38:15;;;;;;;22.60;8.80;;;;;;;26.79;51.38;99795.73;224118;1267;138606;-86
2023/10/03 13:44:03;;;;;;;;;;;;;;;;;;;;;
2023/10/03 13:50:08;;;;;;;24.30;9.70;;;;;;;26.75;50.74;99786.66;224109;1267;138536;-86
2023/10/03 13:56:06;;;;;;;28.70;10.40;;;;;;;26.70;50.75;99779.49;224239;1264;138231;-84
2023/10/03 14:01:59;;;;;;;;;;;;;;;;;;;;;
2023/10/03 14:08:01;;;;;;;27.80;9.50;;;;;;;26.57;50.84;99778.98;224161;1264;138361;-85
2023/10/03 14:14:03;;;;;;;22.40;10.20;;;;;;;26.57;51.52;99778.48;223656;1263;138981;-84
2023/10/03 14:20:05;;;;;;;20.10;8.70;;;;;;;26.58;51.52;99778.58;224055;1265;138148;-87
2023/10/03 14:26:05;;;;;;;33.80;9.50;;;;;;;26.57;51.56;99778.88;224014;1267;138372;-85
2023/10/03 14:38:07;;;;;;;24.80;9.40;;;;;;;26.48;52.40;99783.65;224172;1264;138293;-85
2023/10/03 14:44:10;;;;;;;56.00;12.20;;;;;;;26.35;52.50;99781.48;223648;1263;139238;-83
2023/10/03 14:50:10;;;;;;;26.00;10.10;;;;;;;26.24;52.56;99784.52;223570;1264;139261;-82
2023/10/03 14:56:06;;;;;;;33.00;10.80;;;;;;;26.15;52.98;99779.50;224117;1264;138641;-86
2023/10/03 15:02:07;;;;;;;26.10;10.40;;;;;;;26.04;53.43;99771.81;223695;1263;140216;-85
2023/10/03 15:08:08;;;;;;;22.10;10.10;;;;;;;25.97;53.86;99773.67;224122;1264;138514;-85
2023/10/03 15:14:09;;;;;;;25.20;10.10;;;;;;;25.90;54.05;99779.23;223576;1263;139945;-84
2023/10/03 15:20:11;;;;;;;25.50;10.70;;;;;;;25.83;54.77;99772.43;223624;1263;140220;-84
2023/10/03 15:26:11;;;;;;;24.00;9.50;;;;;;;25.75;55.25;99773.89;224221;1264;137870;-85
2023/10/03 15:32:11;;;;;;;23.60;9.60;;;;;;;25.67;55.64;99773.75;223701;1263;139813;-84
2023/10/03 15:44:17;;;;;;;23.90;11.10;;;;;;;25.46;56.36;99777.89;223435;1264;139293;-85
2023/10/03 16:02:16;;;;;;;25.10;10.50;;;;;;;25.06;57.64;99787.22;223514;1264;139182;-83
2023/10/03 16:08:17;;;;;;;19.60;9.00;;;;;;;24.93;58.28;99788.51;224025;1263;137965;-82
2023/10/03 16:14:18;;;;;;;22.00;10.20;;;;;;;24.78;58.85;99793.45;223742;1263;138962;-84
2023/10/03 16:32:22;;;;;;;20.90;9.30;;;;;;;24.38;60.74;99808.31;223616;1263;139343;-84
2023/10/03 16:38:23;;;;;;;22.00;10.40;;;;;;;24.22;61.76;99814.95;224086;1263;137902;-83
2023/10/03 16:44:22;;;;;;;;;;;;;;;;;;;;;
2023/10/03 16:56:25;;;;;;;22.80;9.50;;;;;;;23.67;64.27;99837.09;224238;1263;137777;-86
2023/10/03 17:02:26;;;;;;;23.80;10.00;;;;;;;23.48;65.00;99848.52;223565;1264;139236;-84
2023/10/03 17:08:27;;;;;;;22.50;10.50;;;;;;;23.31;65.86;99849.95;224246;1263;138389;-85
2023/10/03 17:14:29;;;;;;;22.60;10.50;;;;;;;23.17;65.67;99853.84;223705;1263;139060;-84
2023/10/03 17:26:31;;;;;;;18.50;9.50;;;;;;;22.92;66.07;99847.69;224237;1263;138603;-84
2023/10/03 17:32:32;;;;;;;20.20;10.70;;;;;;;22.83;66.73;99845.64;223595;1263;139277;-84
2023/10/03 17:38:33;;;;;;;21.10;9.70;;;;;;;22.68;67.07;99841.76;224203;1264;138803;-84
2023/10/03 17:44:34;;;;;;;19.00;9.70;;;;;;;22.61;67.56;99844.77;223647;1263;138884;-83
2023/10/03 17:50:35;;;;;;;25.00;12.10;;;;;;;22.53;68.74;99842.15;223643;1263;139124;-83
2023/10/03 17:56:34;;;;;;;;;;;;;;;;;;;;;
2023/10/03 18:02:35;;;;;;;24.70;14.90;;;;;;;22.27;70.92;99813.34;223619;1263;139362;-83
2023/10/03 18:08:37;;;;;;;38.50;33.80;;;;;;;22.15;71.40;99825.63;224160;1263;138417;-83
2023/10/03 18:14:41;;;;;;;241.50;221.50;;;;;;;22.07;72.76;99836.45;223646;1264;139242;-83
2023/10/03 18:26:43;;;;;;;1533.30;846.90;;;;;;;21.57;79.70;99831.45;224250;1263;139644;-83
2023/10/03 18:32:44;;;;;;;1999.90;985.30;;;;;;;21.22;82.94;99827.25;223700;1263;140766;-83
2023/10/03 18:38:45;;;;;;;1999.90;999.90;;;;;;;20.98;86.24;99848.54;224320;1263;225431;-81
2023/10/03 18:44:47;;;;;;;1999.90;999.90;;;;;;;20.69;87.94;99885.17;223806;1263;140909;-83
2023/10/03 18:50:48;;;;;;;1999.90;999.90;;;;;;;20.43;89.62;99883.38;223804;1263;140663;-82
2023/10/03 18:56:49;;;;;;;1999.90;999.90;;;;;;;20.30;92.19;99917.78;224280;1263;140422;-81
2023/10/03 19:14:46;;;;;;;1932.00;906.00;;;;;;;19.24;95.92;100034.94;223651;1263;141620;-84
2023/10/03 19:26:41;;;;;;;1192.10;701.80;;;;;;;18.20;94.98;100116.80;224103;1263;139972;-84
2023/10/03 19:38:43;;;;;;;1665.70;847.30;;;;;;;17.61;98.21;100154.14;224196;1263;139136;-85
2023/10/03 19:44:44;;;;;;;1850.10;898.20;;;;;;;17.45;99.66;100153.07;223618;1263;140612;-85
2023/10/03 19:56:46;;;;;;;1731.20;845.40;;;;;;;17.24;100.00;100171.13;224173;1265;139440;-85
2023/10/03 20:02:40;;;;;;;1871.80;904.90;;;;;;;17.06;100.00;100150.83;223666;1263;141345;-86
2023/10/03 20:08:41;;;;;;;1854.50;896.50;;;;;;;16.98;100.00;100147.33;224299;1264;139444;-85
2023/10/03 20:14:43;;;;;;;1923.40;911.00;;;;;;;16.96;100.00;100136.08;223610;1266;140726;-85
2023/10/03 20:20:44;;;;;;;1911.50;912.20;;;;;;;16.91;100.00;100139.59;223595;1265;141087;-84
2023/10/03 20:26:45;;;;;;;1999.90;979.60;;;;;;;16.87;100.00;100135.86;224159;1263;140063;-84
2023/10/03 20:32:45;;;;;;;1993.60;955.40;;;;;;;16.83;100.00;100162.08;219510;1263;5408926;-82
2023/10/03 20:38:46;;;;;;;1999.90;988.20;;;;;;;16.72;100.00;100167.29;224262;1263;139902;-83
2023/10/03 20:44:47;;;;;;;1999.90;969.80;;;;;;;16.62;100.00;100170.25;223616;1264;140884;-83
2023/10/03 21:02:59;;;;;;;1999.90;987.20;;;;;;;16.27;100.00;100197.45;223669;1263;140827;-83
2023/10/03 21:09:01;;;;;;;1999.90;995.90;;;;;;;16.20;100.00;100216.38;224268;1263;95935;-83
2023/10/03 21:21:01;;;;;;;;;;;;;;;;;;;;;
2023/10/03 21:27:06;;;;;;;1999.90;952.90;;;;;;;16.01;100.00;100299.30;224099;1265;139391;-83
2023/10/03 21:39:09;;;;;;;1683.00;847.90;;;;;;;15.92;100.00;100318.84;224196;1263;139312;-83
2023/10/03 21:45:10;;;;;;;1362.40;775.80;;;;;;;15.82;100.00;100334.27;223792;1263;140414;-82
2023/10/03 21:51:11;;;;;;;1451.50;762.90;;;;;;;15.76;100.00;100363.52;223826;1265;140912;-82
2023/10/03 21:57:15;;;;;;;1524.50;798.40;;;;;;;15.71;100.00;100389.95;224282;1263;139847;-82
2023/10/03 22:03:14;;;;;;;1622.00;812.80;;;;;;;15.70;100.00;100414.39;223728;1264;141237;-82
2023/10/03 22:09:09;;;;;;;1551.20;806.40;;;;;;;15.64;100.00;100430.06;224180;1263;139551;-82
2023/10/03 22:15:09;;;;;;;1595.80;848.30;;;;;;;15.56;100.00;100454.95;223869;1263;140561;-82
2023/10/03 22:21:07;;;;;;;;;;;;;;;;;;;;;
2023/10/03 22:27:10;;;;;;;1320.70;778.80;;;;;;;15.44;100.00;100469.80;224306;1265;139595;-82
2023/10/03 22:33:11;;;;;;;1016.00;699.40;;;;;;;15.39;100.00;100501.91;223653;1263;141131;-81
2023/10/03 22:45:14;;;;;;;849.30;634.40;;;;;;;15.22;100.00;100543.43;224151;1263;140845;-82
2023/10/03 22:51:15;;;;;;;723.10;600.10;;;;;;;15.10;100.00;100555.70;223772;1263;140751;-82
2023/10/03 23:03:17;;;;;;;448.80;407.30;;;;;;;14.86;100.00;100574.81;223708;1263;140930;-82
2023/10/03 23:09:19;;;;;;;406.80;368.80;;;;;;;14.71;100.00;100594.91;224218;1263;139493;-82
2023/10/03 23:15:14;;;;;;;;;;;;;;;;;;;;;
2023/10/03 23:21:16;;;;;;;269.20;247.80;;;;;;;14.41;100.00;100608.20;223590;1263;140668;-81
2023/10/03 23:27:17;;;;;;;198.10;182.80;;;;;;;14.30;100.00;100617.30;224168;1263;139334;-81
2023/10/03 23:33:19;;;;;;;217.10;200.40;;;;;;;14.13;100.00;100630.50;223527;1264;140895;-81
2023/10/03 23:39:21;;;;;;;238.90;221.30;;;;;;;14.00;100.00;100636.81;224168;1267;139234;-84
2023/10/03 23:51:23;;;;;;;197.10;182.70;;;;;;;13.71;100.00;100648.71;223834;1263;141097;-82
2023/10/03 23:57:24;;;;;;;186.30;171.10;;;;;;;13.62;100.00;100674.30;224175;1263;139529;-84
